Dallas, Texas
Traffic Map
Current Weather Conditions
Dallas, Texas
Broken Clouds
Broken Clouds
72°
Feels Like: 72°
Wind Chill: 72° Ceiling: 27000
Heat Index: 72° Visibility: 10mi
Dew Point: 52° Wind: 20mph
Humidity: 49% Direction: 150° (SSE)
Pressure: 29.59in Gusts: 0mph
Raw Report DataKDAL 280053Z 15017KT 10SM FEW120 BKN270 22/11 A2959 RMK AO2 SLP017 T02220111
Traffic Incident Summary
Active as of:
Severity:
Category:
InformationThere was an issue retrieving the traffic information for this location. Please try a different location or try again shortly.
Advertisements
Track Severe Weather on mobile